Time;durP1;ratioP1;P1;durP2;ratioP2;P2;SDS_P1;SDS_P2;PMS_P1;PMS_P2;Temp;Humidity;BMP_temperature;BMP_pressure;BME280_temperature;BME280_humidity;BME280_pressure;Samples;Min_cycle;Max_cycle;Signal;HPM_P1;HPM_P2
2021/12/16 01:38:59;;;;;;;7.43;1.85;;;;;;;18.59;55.13;103492.41;5011306;28;20037;-76
2021/12/16 01:51:34;;;;;;;5.65;1.95;;;;;;;18.57;55.48;103499.59;4989742;28;20454;-77
2021/12/16 01:54:36;;;;;;;4.53;1.80;;;;;;;18.60;55.55;103501.25;4994307;28;20128;-77
2021/12/16 01:56:55;;;;;;;3.33;1.60;;;;;;;18.54;55.71;103505.06;5009655;28;20034;-77
2021/12/16 01:59:23;;;;;;;4.07;1.90;;;;;;;18.55;54.97;103517.44;5009034;28;22585;-77
2021/12/16 02:01:52;;;;;;;4.45;1.67;;;;;;;18.52;55.44;103520.25;5010744;28;20387;-77
2021/12/16 02:04:29;;;;;;;5.15;1.80;;;;;;;18.51;55.63;103526.47;5009530;28;20456;-77
2021/12/16 02:09:34;;;;;;;4.53;1.60;;;;;;;18.51;55.24;103521.16;5009992;28;20510;-77
2021/12/16 02:12:16;;;;;;;3.92;1.70;;;;;;;18.50;54.92;103524.75;5010389;28;20042;-78
2021/12/16 02:36:28;;;;;;;4.75;1.63;;;;;;;18.43;54.89;103534.81;4994388;28;20111;-76
2021/12/16 02:39:00;;;;;;;4.80;1.90;;;;;;;18.46;54.72;103537.34;4993157;28;20042;-77
2021/12/16 02:41:26;;;;;;;3.97;1.73;;;;;;;18.44;54.82;103535.69;4992614;28;20040;-76
2021/12/16 02:44:08;;;;;;;3.30;1.48;;;;;;;18.42;54.89;103541.06;5008432;28;20132;-77
2021/12/16 02:49:17;;;;;;;4.75;1.70;;;;;;;18.40;54.65;103540.28;5008303;28;20161;-76
2021/12/16 02:51:44;;;;;;;5.57;1.65;;;;;;;18.41;54.89;103543.78;5008513;28;20053;-76
2021/12/16 02:54:09;;;;;;;4.53;1.58;;;;;;;18.39;55.04;103537.69;5009261;28;20442;-76
2021/12/16 02:56:35;;;;;;;5.35;1.60;;;;;;;18.43;54.29;103539.28;5008074;28;20038;-76
2021/12/16 02:59:01;;;;;;;4.78;1.80;;;;;;;18.41;54.30;103543.78;5009081;28;20125;-74
2021/12/16 03:01:33;;;;;;;3.28;1.52;;;;;;;18.40;54.64;103539.44;5009362;28;20121;-76
2021/12/16 03:04:00;;;;;;;4.13;1.70;;;;;;;18.39;54.38;103535.88;4991844;28;20417;-75
2021/12/16 03:06:28;;;;;;;4.63;1.65;;;;;;;18.41;54.36;103536.69;5007402;28;20696;-76
2021/12/16 03:08:54;;;;;;;3.97;1.60;;;;;;;18.38;54.35;103531.50;5009408;28;20176;-77
2021/12/16 03:11:35;;;;;;;3.53;1.58;;;;;;;18.36;54.57;103529.84;4974962;28;20049;-77
2021/12/16 03:14:19;;;;;;;4.70;1.80;;;;;;;18.36;54.19;103532.50;5009014;28;20046;-73
2021/12/16 03:19:22;;;;;;;6.78;1.70;;;;;;;18.33;54.06;103543.28;5007393;28;20130;-77
2021/12/16 03:21:53;;;;;;;3.63;1.50;;;;;;;18.33;54.00;103538.81;5009098;28;20040;-77
2021/12/16 03:36:51;;;;;;;5.97;2.00;;;;;;;18.24;54.00;103533.97;5008986;28;20505;-77
2021/12/16 03:39:16;;;;;;;4.15;1.75;;;;;;;18.22;53.82;103535.81;5007274;28;20049;-77
2021/12/16 03:41:42;;;;;;;3.08;1.35;;;;;;;18.25;54.13;103543.66;5007525;28;20480;-77
2021/12/16 03:44:11;;;;;;;2.50;1.40;;;;;;;18.28;53.91;103540.84;5007004;28;20062;-75
2021/12/16 03:46:39;;;;;;;3.13;1.60;;;;;;;18.22;54.12;103542.00;5007380;28;20041;-77
2021/12/16 03:49:06;;;;;;;2.70;1.30;;;;;;;18.25;54.14;103535.69;5007044;28;20121;-76
2021/12/16 03:51:41;;;;;;;4.00;1.85;;;;;;;18.20;53.82;103543.00;5008448;28;20042;-77
2021/12/16 03:54:16;;;;;;;3.38;1.48;;;;;;;18.18;53.88;103545.72;5008290;28;20038;-75
2021/12/16 03:56:42;;;;;;;4.22;1.58;;;;;;;18.16;53.54;103534.31;5008484;28;20038;-76
2021/12/16 03:59:08;;;;;;;3.97;1.67;;;;;;;18.15;53.59;103535.25;5007932;28;20102;-76
2021/12/16 04:01:33;;;;;;;4.32;1.35;;;;;;;18.17;54.02;103543.13;5007171;28;20074;-76
2021/12/16 04:03:59;;;;;;;4.18;1.70;;;;;;;18.12;54.04;103546.00;5007331;28;20546;-76
2021/12/16 04:06:25;;;;;;;3.30;1.55;;;;;;;18.14;53.67;103553.91;5006433;28;20116;-76
2021/12/16 04:08:52;;;;;;;3.72;1.58;;;;;;;18.14;53.80;103549.44;4990958;28;20255;-76
2021/12/16 04:11:22;;;;;;;3.88;1.60;;;;;;;18.14;53.94;103557.41;5006558;28;20137;-76
2021/12/16 04:14:00;;;;;;;3.75;1.50;;;;;;;18.11;53.48;103559.34;5008703;28;20092;-76
2021/12/16 04:16:29;;;;;;;6.53;1.73;;;;;;;18.12;53.38;103550.47;5007731;28;20095;-77
2021/12/16 04:18:55;;;;;;;4.43;1.60;;;;;;;18.09;53.31;103556.78;5012307;28;20045;-77
2021/12/16 04:21:21;;;;;;;3.67;1.40;;;;;;;18.07;53.74;103553.31;5010770;28;20414;-77
2021/12/16 04:23:48;;;;;;;4.43;1.55;;;;;;;18.05;53.36;103549.91;5012754;28;20040;-77
2021/12/16 04:26:14;;;;;;;3.50;1.58;;;;;;;18.06;53.41;103551.59;5012243;28;20048;-77
2021/12/16 04:28:40;;;;;;;3.25;1.33;;;;;;;18.04;53.64;103556.97;4995143;28;20371;-77
2021/12/16 04:31:05;;;;;;;3.20;1.60;;;;;;;18.05;53.35;103557.88;5011685;28;20053;-77
2021/12/16 04:33:31;;;;;;;3.75;1.70;;;;;;;18.04;52.95;103562.28;5012181;28;20088;-76
2021/12/16 04:35:56;;;;;;;2.75;1.38;;;;;;;18.02;53.36;103558.00;5010872;28;20100;-76
2021/12/16 04:38:22;;;;;;;3.22;1.50;;;;;;;18.04;53.19;103558.78;5011183;28;20490;-76
2021/12/16 04:40:49;;;;;;;3.88;1.65;;;;;;;18.01;52.98;103556.25;5010130;28;20038;-76
2021/12/16 04:43:22;;;;;;;4.82;1.60;;;;;;;17.98;53.22;103559.91;5011098;28;20045;-76
2021/12/16 04:45:48;;;;;;;3.67;1.63;;;;;;;17.98;53.31;103559.91;5010461;28;20140;-76
2021/12/16 04:48:13;;;;;;;3.70;1.60;;;;;;;18.00;53.02;103557.19;5010065;28;20818;-77
2021/12/16 04:50:39;;;;;;;3.60;1.35;;;;;;;17.98;53.01;103557.25;5010506;28;20042;-76
2021/12/16 04:53:04;;;;;;;5.80;1.80;;;;;;;17.96;53.00;103561.78;5011260;28;20371;-77
2021/12/16 04:55:30;;;;;;;3.38;1.67;;;;;;;17.97;53.20;103568.81;5010488;28;20533;-76
2021/12/16 04:57:55;;;;;;;4.93;1.70;;;;;;;17.97;53.33;103575.94;5011655;28;20509;-76
2021/12/16 05:00:22;;;;;;;3.42;1.60;;;;;;;17.98;52.92;103583.81;5010222;28;20050;-77
2021/12/16 05:02:48;;;;;;;4.00;1.60;;;;;;;17.96;52.97;103582.19;5010374;28;20041;-77
2021/12/16 05:05:13;;;;;;;3.95;1.52;;;;;;;17.94;53.21;103587.53;5010458;28;20038;-77
2021/12/16 05:07:40;;;;;;;4.40;1.60;;;;;;;17.92;53.02;103591.19;5011660;28;20088;-77
2021/12/16 05:10:07;;;;;;;3.22;1.80;;;;;;;17.95;53.09;103583.09;5009680;28;20050;-77
2021/12/16 05:12:37;;;;;;;4.45;1.70;;;;;;;17.93;52.84;103592.94;5011465;28;20045;-77
2021/12/16 05:15:05;;;;;;;2.83;1.57;;;;;;;17.91;52.77;103594.78;5008458;28;20066;-76
2021/12/16 05:17:37;;;;;;;3.58;1.50;;;;;;;17.93;53.05;103592.94;5011436;28;20045;-77
2021/12/16 05:20:08;;;;;;;3.92;1.70;;;;;;;17.92;52.92;103589.41;5010952;28;20112;-76
2021/12/16 05:28:01;;;;;;;3.63;1.77;;;;;;;17.86;52.63;103592.31;5009333;28;20037;-74
2021/12/16 05:30:26;;;;;;;3.17;1.55;;;;;;;17.89;53.01;103591.34;5010869;28;20434;-76
2021/12/16 05:32:52;;;;;;;3.65;1.63;;;;;;;17.89;52.83;103592.19;5011391;28;20609;-76
2021/12/16 05:35:18;;;;;;;3.60;1.60;;;;;;;17.86;53.04;103592.31;4992943;28;20037;-77
2021/12/16 05:37:45;;;;;;;4.60;1.65;;;;;;;17.67;52.75;103581.59;5010915;28;20053;-76
2021/12/16 05:40:13;;;;;;;3.53;1.60;;;;;;;17.77;53.40;103583.00;5010487;28;20136;-77
2021/12/16 05:42:38;;;;;;;5.13;1.50;;;;;;;17.82;53.38;103601.38;4993228;28;20068;-75
2021/12/16 05:45:07;;;;;;;5.55;1.80;;;;;;;17.82;54.27;103601.38;4982719;28;20035;-77
2021/12/16 05:47:34;;;;;;;4.60;1.75;;;;;;;17.85;53.53;103597.72;5001678;28;20050;-77
2021/12/16 05:49:59;;;;;;;6.70;1.63;;;;;;;17.84;53.52;103591.56;4992581;28;20141;-78
2021/12/16 05:52:26;;;;;;;4.65;1.77;;;;;;;17.85;53.23;103601.22;4993152;28;20096;-78
2021/12/16 05:54:51;;;;;;;4.30;1.70;;;;;;;17.87;53.30;103604.69;5002310;28;20060;-78
2021/12/16 05:57:17;;;;;;;4.93;1.77;;;;;;;17.87;53.19;103607.34;5004391;28;20752;-77
2021/12/16 05:59:42;;;;;;;3.10;1.60;;;;;;;17.88;53.24;103600.25;5009653;28;20552;-77
2021/12/16 06:02:08;;;;;;;4.93;1.70;;;;;;;17.88;52.97;103603.75;4995028;28;20125;-77
2021/12/16 06:04:33;;;;;;;3.63;1.58;;;;;;;17.94;52.98;103606.16;5000334;28;20042;-76
2021/12/16 06:06:59;;;;;;;3.33;1.50;;;;;;;17.92;53.25;103612.44;5001826;28;20032;-76
2021/12/16 06:09:24;;;;;;;3.50;1.63;;;;;;;17.99;53.20;103614.78;4994386;28;20065;-76
2021/12/16 06:11:52;;;;;;;3.67;1.70;;;;;;;18.03;52.82;103620.81;4988748;28;20050;-76
2021/12/16 06:14:44;;;;;;;4.43;1.70;;;;;;;18.04;53.17;103612.78;4998745;28;20489;-75
2021/12/16 06:28:04;;;;;;;4.28;1.73;;;;;;;18.13;52.99;103622.13;4998036;28;20037;-76
2021/12/16 06:30:32;;;;;;;5.55;1.95;;;;;;;18.26;52.81;103635.72;4988049;28;20082;-76
2021/12/16 06:32:59;;;;;;;4.40;1.98;;;;;;;18.37;52.92;103635.25;4993592;28;20046;-76
2021/12/16 06:35:25;;;;;;;5.15;1.80;;;;;;;18.47;52.82;103637.41;5000375;28;20043;-77
2021/12/16 06:37:50;;;;;;;3.30;1.60;;;;;;;18.58;52.74;103628.06;5006468;28;20516;-77
2021/12/16 06:40:16;;;;;;;3.60;1.67;;;;;;;18.69;52.97;103645.25;4980223;28;20414;-76
2021/12/16 06:42:43;;;;;;;3.25;1.45;;;;;;;18.80;52.78;103657.22;4990621;28;20042;-76
2021/12/16 06:45:14;;;;;;;4.80;1.75;;;;;;;18.84;52.40;103654.38;4996580;28;20047;-76
2021/12/16 06:47:50;;;;;;;3.35;1.40;;;;;;;18.89;52.33;103648.81;4993566;28;20037;-76
2021/12/16 06:50:27;;;;;;;2.60;1.45;;;;;;;18.94;52.59;103654.78;4995014;28;20509;-76
2021/12/16 06:52:56;;;;;;;3.17;1.40;;;;;;;18.97;52.31;103667.09;5000329;28;20564;-76
2021/12/16 06:55:31;;;;;;;4.40;1.20;;;;;;;18.97;52.19;103667.94;5000128;28;20041;-74
2021/12/16 06:58:07;;;;;;;4.07;1.50;;;;;;;19.04;52.35;103658.72;4999214;28;20042;-76
2021/12/16 07:00:39;;;;;;;5.43;1.40;;;;;;;19.05;51.77;103665.75;4990864;28;20033;-76
2021/12/16 07:03:07;;;;;;;4.28;1.38;;;;;;;19.05;52.15;103675.53;4998389;28;20037;-76
2021/12/16 07:05:38;;;;;;;3.00;1.30;;;;;;;19.05;52.03;103672.88;5000018;28;20054;-77
2021/12/16 07:08:05;;;;;;;3.38;1.50;;;;;;;19.05;52.30;103679.06;4996090;28;20042;-76
2021/12/16 07:10:30;;;;;;;5.40;1.50;;;;;;;19.06;52.82;103691.47;5000555;28;20054;-77
2021/12/16 07:13:05;;;;;;;3.88;1.67;;;;;;;19.07;52.49;103689.66;4998938;28;20039;-77
2021/12/16 07:15:32;;;;;;;3.10;1.42;;;;;;;19.09;51.91;103685.13;4992402;28;20038;-77
2021/12/16 07:17:57;;;;;;;3.15;1.40;;;;;;;19.10;52.44;103684.19;5001494;28;20679;-76
2021/12/16 07:20:26;;;;;;;3.80;1.33;;;;;;;19.12;52.37;103701.81;5003193;28;20049;-77
2021/12/16 07:22:51;;;;;;;2.75;1.23;;;;;;;19.13;51.95;103714.16;4988933;28;20528;-77
2021/12/16 07:25:16;;;;;;;3.70;1.20;;;;;;;19.13;51.80;103706.19;4994794;28;20434;-77
2021/12/16 07:27:43;;;;;;;2.85;1.33;;;;;;;19.12;51.84;103706.28;5007371;28;20048;-77
2021/12/16 07:30:10;;;;;;;3.63;1.20;;;;;;;19.14;51.96;103715.88;5006824;28;20507;-75
2021/12/16 07:32:35;;;;;;;3.33;1.60;;;;;;;19.14;51.72;103713.22;4968067;28;20045;-65
2021/12/16 07:35:02;;;;;;;3.65;1.63;;;;;;;19.10;52.59;103722.31;4993126;28;20414;-65
2021/12/16 07:37:28;;;;;;;7.18;1.83;;;;;;;19.07;51.29;103719.78;5000591;28;20053;-65
2021/12/16 07:39:53;;;;;;;4.47;1.80;;;;;;;19.09;51.96;103730.38;5000676;28;20121;-65
2021/12/16 07:42:27;;;;;;;3.50;1.67;;;;;;;19.05;52.01;103745.59;5003550;28;20532;-65
2021/12/16 07:44:52;;;;;;;3.47;1.70;;;;;;;18.99;51.49;103742.34;5004535;28;20042;-65
2021/12/16 07:47:18;;;;;;;4.55;1.73;;;;;;;18.93;51.89;103732.88;5005250;28;20308;-65
2021/12/16 07:49:43;;;;;;;4.70;2.17;;;;;;;18.92;51.47;103731.13;4998600;28;20042;-65
2021/12/16 07:52:11;;;;;;;4.72;1.90;;;;;;;18.90;51.59;103746.34;5004162;28;20030;-66
2021/12/16 07:54:36;;;;;;;5.05;2.45;;;;;;;18.87;51.83;103743.81;4991158;28;20069;-65
2021/12/16 07:57:02;;;;;;;4.68;1.63;;;;;;;18.87;51.05;103751.78;4987687;28;20038;-66
2021/12/16 07:59:29;;;;;;;6.68;1.85;;;;;;;18.87;51.11;103763.28;4971452;28;20107;-65
2021/12/16 08:01:54;;;;;;;5.03;1.63;;;;;;;18.87;51.44;103763.28;4991528;28;20049;-65
2021/12/16 08:04:22;;;;;;;4.75;2.03;;;;;;;18.86;51.20;103768.66;5004530;28;20081;-65
2021/12/16 08:06:52;;;;;;;4.22;1.70;;;;;;;18.83;50.72;103763.47;4993798;28;20125;-65
2021/12/16 08:09:17;;;;;;;4.63;2.10;;;;;;;18.83;50.60;103767.00;4997854;28;20061;-65
2021/12/16 08:11:43;;;;;;;3.78;1.80;;;;;;;18.83;50.92;103771.47;5006909;28;20077;-65
2021/12/16 08:14:08;;;;;;;4.00;1.85;;;;;;;18.84;50.73;103773.22;4997851;28;20038;-66
2021/12/16 08:16:34;;;;;;;3.63;1.55;;;;;;;18.84;50.53;103770.56;4996942;28;20053;-65
2021/12/16 08:19:00;;;;;;;5.40;2.00;;;;;;;18.85;50.56;103780.25;5006235;28;20069;-65
2021/12/16 08:21:28;;;;;;;4.05;2.35;;;;;;;18.82;50.31;103788.38;4994208;28;20038;-65
2021/12/16 08:23:57;;;;;;;4.60;2.00;;;;;;;18.79;50.94;103785.84;4991781;28;20034;-65
2021/12/16 08:26:23;;;;;;;4.80;1.98;;;;;;;18.80;50.89;103792.88;5007114;28;20048;-65
2021/12/16 08:28:48;;;;;;;3.60;1.88;;;;;;;18.78;50.38;103790.31;5007249;28;20034;-65
2021/12/16 08:31:14;;;;;;;4.80;1.92;;;;;;;18.77;50.35;103787.69;4989531;28;20077;-65
2021/12/16 08:33:39;;;;;;;6.55;1.83;;;;;;;18.87;50.66;103791.69;4997001;28;20401;-64
2021/12/16 08:36:06;;;;;;;4.30;1.90;;;;;;;18.89;50.52;103803.13;5001631;28;20076;-65
2021/12/16 08:38:31;;;;;;;5.60;2.10;;;;;;;18.88;50.58;103812.03;4987750;28;20054;-65
2021/12/16 08:41:00;;;;;;;4.90;1.83;;;;;;;18.82;50.55;103801.66;5000807;28;20074;-65
2021/12/16 08:43:26;;;;;;;6.28;2.08;;;;;;;18.79;50.38;103793.81;4998452;28;20403;-65
2021/12/16 08:45:51;;;;;;;3.58;1.73;;;;;;;18.80;50.48;103809.69;5001615;28;20030;-65
2021/12/16 08:48:17;;;;;;;3.72;1.73;;;;;;;18.79;50.97;103804.47;4987545;28;20503;-65
2021/12/16 08:50:47;;;;;;;5.20;2.10;;;;;;;18.78;50.79;103806.25;4987288;28;20034;-65
2021/12/16 08:53:13;;;;;;;3.47;1.67;;;;;;;18.83;50.85;103808.72;4986076;28;20057;-66
2021/12/16 08:55:39;;;;;;;4.63;1.77;;;;;;;18.84;50.73;103811.31;4993947;28;20046;-66
2021/12/16 08:58:05;;;;;;;4.28;1.80;;;;;;;18.79;51.24;103791.16;4999064;28;20100;-66
2021/12/16 09:00:33;;;;;;;6.55;1.98;;;;;;;18.75;50.30;103792.25;4991573;28;20125;-66
2021/12/16 09:02:59;;;;;;;5.50;1.90;;;;;;;18.72;50.53;103801.19;4983732;28;20046;-66
2021/12/16 09:05:24;;;;;;;4.85;1.90;;;;;;;18.73;50.29;103814.44;4991643;28;20080;-65
2021/12/16 09:07:50;;;;;;;3.30;1.67;;;;;;;18.72;50.61;103820.69;5010367;28;20113;-66
2021/12/16 09:10:23;;;;;;;4.65;1.83;;;;;;;18.75;50.85;103832.16;5010274;28;20038;-65
2021/12/16 09:13:05;;;;;;;4.05;1.80;;;;;;;18.76;50.27;103833.88;5010653;28;20046;-65
2021/12/16 09:15:44;;;;;;;4.57;1.67;;;;;;;18.76;50.65;103839.19;5005947;28;20050;-65
2021/12/16 09:18:09;;;;;;;4.40;1.77;;;;;;;18.77;50.04;103835.56;5008432;28;20060;-65
2021/12/16 09:20:35;;;;;;;3.85;1.80;;;;;;;18.76;50.21;103833.88;5008108;28;20030;-65
2021/12/16 09:23:01;;;;;;;4.55;1.90;;;;;;;18.76;50.70;103833.88;5003274;28;20517;-67
2021/12/16 09:25:27;;;;;;;5.47;2.00;;;;;;;18.76;50.22;103836.53;5001248;28;20030;-65
2021/12/16 09:27:53;;;;;;;3.72;1.80;;;;;;;18.77;50.83;103838.25;4998987;28;20116;-65
2021/12/16 09:30:20;;;;;;;5.57;2.03;;;;;;;18.79;50.35;103844.38;4990152;28;20042;-65
2021/12/16 09:32:46;;;;;;;4.30;2.03;;;;;;;18.84;50.26;103850.38;4997679;28;20042;-65
2021/12/16 09:35:11;;;;;;;5.78;2.17;;;;;;;18.83;50.19;103857.44;4998241;28;20049;-65
2021/12/16 09:37:37;;;;;;;4.68;1.55;;;;;;;18.87;50.68;103852.88;4998705;28;20046;-66
2021/12/16 09:40:07;;;;;;;4.97;2.05;;;;;;;18.85;50.55;103855.59;4997482;28;20035;-65
2021/12/16 09:42:32;;;;;;;3.97;1.97;;;;;;;18.80;50.29;103854.94;4991060;28;20053;-65
2021/12/16 09:44:58;;;;;;;5.28;2.00;;;;;;;18.80;50.33;103856.72;5005222;28;20038;-65
2021/12/16 09:47:23;;;;;;;4.57;2.00;;;;;;;18.81;50.55;103847.84;4996781;28;20049;-65
2021/12/16 09:49:49;;;;;;;4.80;2.00;;;;;;;18.83;50.40;103860.09;5001100;28;20088;-65
2021/12/16 09:52:15;;;;;;;3.33;1.70;;;;;;;18.85;50.92;103855.59;5003009;28;20097;-65
2021/12/16 09:54:41;;;;;;;3.55;1.65;;;;;;;18.87;50.55;103868.84;4997549;28;20243;-65
2021/12/16 09:57:07;;;;;;;6.28;1.90;;;;;;;18.85;51.10;103858.25;5007808;28;20646;-65
2021/12/16 09:59:33;;;;;;;4.35;1.98;;;;;;;18.87;50.47;103867.03;5010090;28;20077;-65
2021/12/16 10:02:01;;;;;;;5.70;1.80;;;;;;;18.86;50.50;103869.75;5006675;28;20771;-65
2021/12/16 10:04:31;;;;;;;5.00;1.85;;;;;;;18.85;51.38;103870.69;5000040;28;20487;-65
2021/12/16 10:06:57;;;;;;;5.07;2.03;;;;;;;18.84;51.26;103864.53;4974003;28;20126;-65
2021/12/16 10:09:23;;;;;;;3.58;1.70;;;;;;;18.83;51.31;103870.75;4989034;28;20038;-66
2021/12/16 10:11:49;;;;;;;3.33;1.70;;;;;;;18.85;51.37;103881.34;5002512;28;20038;-65
2021/12/16 10:19:37;;;;;;;4.00;1.70;;;;;;;18.89;50.93;103866.97;4990029;28;20057;-65
2021/12/16 10:22:28;;;;;;;4.93;1.80;;;;;;;18.93;51.47;103868.59;4988295;28;20047;-66
2021/12/16 10:24:56;;;;;;;3.65;1.73;;;;;;;18.97;51.52;103871.97;4979550;28;20034;-65
2021/12/16 10:27:26;;;;;;;4.00;1.77;;;;;;;18.99;51.67;103878.97;5001744;28;20042;-65
2021/12/16 10:29:58;;;;;;;10.35;1.70;;;;;;;19.00;50.99;103875.34;4995763;28;20056;-65
2021/12/16 10:32:38;;;;;;;9.82;2.22;;;;;;;18.97;51.85;103870.16;4988473;28;20402;-65
2021/12/16 10:35:11;;;;;;;;;;;;;;;18.93;51.71;103868.59;4990212;28;20085;-66
2021/12/16 10:37:40;;;;;;;5.93;1.70;;;;;;;18.96;51.88;103873.75;5001422;28;19925;-65
2021/12/16 10:40:35;;;;;;;3.40;1.60;;;;;;;18.95;51.84;103872.03;5009292;28;20046;-66
2021/12/16 10:43:07;;;;;;;3.78;1.60;;;;;;;18.94;51.96;103868.50;5005960;28;20030;-66
2021/12/16 10:45:37;;;;;;;5.40;1.90;;;;;;;18.95;52.19;103870.22;5002857;28;20034;-65
2021/12/16 10:48:11;;;;;;;5.90;1.83;;;;;;;18.94;51.73;103871.16;5001083;28;20475;-66
2021/12/16 10:51:12;;;;;;;5.03;1.73;;;;;;;18.93;51.70;103880.09;5003687;28;20041;-66
2021/12/16 10:53:48;;;;;;;4.50;1.85;;;;;;;18.94;52.13;103872.97;4969363;28;20054;-66
2021/12/16 10:56:14;;;;;;;4.68;1.90;;;;;;;18.97;51.62;103875.47;4989099;28;20154;-66
2021/12/16 10:59:12;;;;;;;5.57;2.10;;;;;;;18.98;52.54;103877.22;4988826;28;20113;-65
2021/12/16 11:01:53;;;;;;;5.25;2.00;;;;;;;18.99;51.73;103878.06;4989093;28;20045;-65
2021/12/16 11:04:25;;;;;;;4.15;1.75;;;;;;;19.01;51.58;103877.06;4992062;28;20073;-66
2021/12/16 11:06:52;;;;;;;3.83;1.80;;;;;;;19.03;51.92;103880.53;4998619;28;20042;-65
2021/12/16 11:09:47;;;;;;;4.00;1.70;;;;;;;19.02;51.89;103878.81;5001324;28;20410;-65
2021/12/16 11:12:26;;;;;;;5.43;2.33;;;;;;;19.00;52.45;103879.81;4983140;28;20132;-64
2021/12/16 11:14:53;;;;;;;4.45;1.95;;;;;;;19.00;52.50;103874.50;5004435;28;20124;-65
2021/12/16 11:17:19;;;;;;;7.13;2.47;;;;;;;19.01;52.60;103877.06;4990898;28;20061;-65
2021/12/16 11:19:46;;;;;;;5.60;2.00;;;;;;;19.05;52.39;103877.78;5007104;28;20041;-65
2021/12/16 11:22:14;;;;;;;5.13;2.00;;;;;;;19.10;52.33;103881.13;4994594;28;20544;-65
2021/12/16 11:24:39;;;;;;;5.75;2.20;;;;;;;19.12;52.34;103879.28;4992957;28;20084;-65
2021/12/16 11:27:37;;;;;;;6.05;2.05;;;;;;;19.15;52.63;103877.34;5002338;28;20749;-65
2021/12/16 11:30:38;;;;;;;4.72;2.10;;;;;;;19.27;52.18;103869.69;4984884;28;20038;-65
2021/12/16 11:33:11;;;;;;;8.75;2.50;;;;;;;19.12;52.39;103869.47;4952015;28;20063;-66
2021/12/16 11:35:44;;;;;;;9.10;2.85;;;;;;;19.06;53.14;103876.88;4981756;28;20061;-64
2021/12/16 11:38:40;;;;;;;5.82;2.35;;;;;;;19.05;53.12;103867.16;4998148;28;20098;-64
2021/12/16 11:41:23;;;;;;;8.40;2.28;;;;;;;19.06;53.04;103867.09;5004908;28;20042;-64
2021/12/16 11:44:02;;;;;;;6.28;2.17;;;;;;;19.04;53.03;103868.94;5007094;28;20124;-64
2021/12/16 11:46:29;;;;;;;6.53;2.85;;;;;;;19.05;52.66;103872.47;5047151;28;20041;-64
2021/12/16 11:48:58;;;;;;;6.95;2.08;;;;;;;19.06;53.07;103874.22;5047520;28;20037;-64
2021/12/16 11:51:39;;;;;;;6.97;2.20;;;;;;;19.05;52.71;103873.31;5029682;28;20040;-64
2021/12/16 11:54:23;;;;;;;6.13;2.20;;;;;;;19.03;53.36;103869.03;5044011;28;20105;-65
2021/12/16 11:57:06;;;;;;;9.20;3.70;;;;;;;18.78;53.41;103870.09;5019912;28;20134;-62
2021/12/16 11:59:42;;;;;;;8.70;3.05;;;;;;;18.84;53.76;103868.97;5009100;28;20049;-65
2021/12/16 12:02:21;;;;;;;6.78;2.42;;;;;;;18.89;53.28;103873.16;5027895;28;20581;-65
2021/12/16 12:04:47;;;;;;;9.43;2.47;;;;;;;18.96;53.48;103873.75;5037198;28;20054;-65
2021/12/16 12:07:13;;;;;;;11.10;2.67;;;;;;;18.98;53.76;103873.69;5035083;28;20044;-65
2021/12/16 12:09:47;;;;;;;6.90;2.22;;;;;;;18.98;53.79;103871.88;5018267;28;20076;-65
2021/12/16 12:12:12;;;;;;;6.07;2.50;;;;;;;18.97;53.76;103872.81;5038153;28;20044;-65
2021/12/16 12:14:38;;;;;;;5.63;2.20;;;;;;;18.98;53.60;103863.03;5034126;28;20030;-65
2021/12/16 12:17:10;;;;;;;7.10;2.53;;;;;;;18.97;53.41;103870.16;5018346;28;20045;-65
2021/12/16 12:19:43;;;;;;;6.13;2.35;;;;;;;18.95;53.74;103866.69;5047510;28;20040;-65
2021/12/16 12:22:09;;;;;;;7.22;2.67;;;;;;;18.95;53.06;103867.56;5046615;28;20041;-65
2021/12/16 12:24:40;;;;;;;5.82;2.45;;;;;;;18.93;53.30;103861.47;5032837;28;20463;-65
2021/12/16 12:27:08;;;;;;;7.03;2.22;;;;;;;18.93;53.63;103865.91;5066873;28;20036;-65
2021/12/16 12:29:51;;;;;;;7.25;2.38;;;;;;;18.93;53.09;103863.25;5066338;28;20449;-65
2021/12/16 12:32:18;;;;;;;5.60;2.33;;;;;;;18.92;53.29;103864.16;5046758;28;20049;-65
2021/12/16 12:34:46;;;;;;;4.82;2.05;;;;;;;18.94;53.15;103859.66;5030795;28;20047;-64
2021/12/16 12:37:14;;;;;;;7.22;2.40;;;;;;;18.95;53.74;103861.38;5022272;28;20048;-65
2021/12/16 12:39:42;;;;;;;7.60;2.60;;;;;;;18.94;53.53;103867.63;5017035;28;20124;-65
2021/12/16 12:42:08;;;;;;;7.95;2.42;;;;;;;18.97;53.78;103861.31;5016998;28;20040;-65
2021/12/16 12:44:34;;;;;;;7.63;2.75;;;;;;;18.97;53.42;103858.66;5015678;28;20400;-65
2021/12/16 12:47:00;;;;;;;5.55;2.15;;;;;;;18.97;53.03;103864.84;5031234;28;20060;-65
2021/12/16 12:49:26;;;;;;;5.60;2.03;;;;;;;19.00;53.55;103863.84;5013791;28;20569;-65
2021/12/16 12:51:53;;;;;;;5.35;2.38;;;;;;;18.99;53.18;103863.00;5032838;28;20123;-65
2021/12/16 12:54:26;;;;;;;6.28;2.25;;;;;;;18.96;53.78;103863.13;5049854;28;20037;-65
2021/12/16 12:56:54;;;;;;;5.15;2.28;;;;;;;18.97;53.07;103864.84;5045772;28;20037;-65
2021/12/16 12:59:20;;;;;;;5.15;2.13;;;;;;;19.00;53.62;103870.03;5044386;28;20563;-65
2021/12/16 13:01:54;;;;;;;5.78;2.25;;;;;;;19.02;53.34;103870.84;5038074;28;20025;-65
2021/12/16 13:04:32;;;;;;;6.32;2.28;;;;;;;19.01;53.73;103866.44;5025154;28;20049;-65
2021/12/16 13:07:03;;;;;;;5.68;2.60;;;;;;;19.03;53.09;103859.25;5030864;28;20041;-65
2021/12/16 13:09:43;;;;;;;4.00;2.00;;;;;;;19.04;52.98;103860.09;5012692;28;20057;-65
2021/12/16 13:12:24;;;;;;;5.05;2.03;;;;;;;19.03;53.13;103861.06;5033026;28;20041;-65
2021/12/16 13:14:52;;;;;;;4.32;2.08;;;;;;;19.05;53.56;103864.50;5030523;28;20045;-65
2021/12/16 13:23:29;;;;;;;5.35;2.25;;;;;;;19.09;53.00;103866.97;5028849;28;20342;-65
2021/12/16 13:28:48;;;;;;;;;;;;;;;19.10;52.77;103875.81;5048564;28;20098;-64
2021/12/16 13:31:26;;;;;;;4.53;1.88;;;;;;;19.16;53.25;103868.41;5031518;28;19924;-64
2021/12/16 13:33:57;;;;;;;6.22;1.98;;;;;;;19.17;52.94;103855.94;5035315;28;20041;-64
2021/12/16 13:36:46;;;;;;;4.68;1.80;;;;;;;19.18;52.82;103869.22;5030285;28;20049;-64
2021/12/16 13:39:15;;;;;;;4.13;1.67;;;;;;;19.25;52.71;103863.59;5019459;28;20049;-65
2021/12/16 13:42:05;;;;;;;3.83;1.90;;;;;;;19.30;53.27;103864.25;5012648;28;20038;-65
2021/12/16 13:45:02;;;;;;;5.00;1.83;;;;;;;19.27;53.10;103870.56;5043688;28;20114;-65
2021/12/16 14:02:03;;;;;;;5.25;1.75;;;;;;;19.27;54.09;103893.66;5031568;28;20420;-65
2021/12/16 14:10:16;;;;;;;5.43;2.03;;;;;;;19.24;53.91;103900.00;5049063;28;20043;-65
2021/12/16 14:16:16;;;;;;;7.05;2.15;;;;;;;19.23;54.29;103886.75;5011353;28;20617;-65
2021/12/16 14:24:57;;;;;;;5.93;2.03;;;;;;;19.22;53.54;103895.69;5044233;28;20047;-64
2021/12/16 14:41:50;;;;;;;3.92;1.75;;;;;;;19.21;53.66;103900.16;5048518;28;20103;-65
2021/12/16 14:46:58;;;;;;;;;;;;;;;19.14;53.96;103910.19;5040428;28;20123;-65
2021/12/16 14:49:30;;;;;;;6.65;2.15;;;;;;;19.16;53.94;103912.78;5044825;28;20399;-65
2021/12/16 14:51:58;;;;;;;4.13;1.88;;;;;;;19.14;53.19;103901.34;5036408;28;20051;-65
2021/12/16 14:54:24;;;;;;;6.90;2.20;;;;;;;19.16;53.64;103913.66;5043161;28;20040;-65
2021/12/16 14:56:49;;;;;;;4.85;2.03;;;;;;;19.15;53.49;103917.25;5048288;28;20033;-65
2021/12/16 14:59:17;;;;;;;5.18;2.10;;;;;;;19.12;53.96;103917.38;5043782;28;20659;-65
2021/12/16 15:01:45;;;;;;;3.40;1.90;;;;;;;19.12;53.71;103920.06;5027757;28;20088;-65
2021/12/16 15:04:14;;;;;;;5.00;1.92;;;;;;;19.11;53.90;103920.97;5033295;28;20034;-65
2021/12/16 15:06:48;;;;;;;6.40;2.33;;;;;;;19.11;53.44;103928.94;5032527;28;20128;-64
2021/12/16 15:09:27;;;;;;;5.15;2.13;;;;;;;19.09;53.52;103928.16;5019116;28;20295;-65
2021/12/16 15:17:06;;;;;;;5.95;2.40;;;;;;;19.10;53.89;103929.88;5047739;28;20095;-65
2021/12/16 15:45:22;;;;;;;7.00;2.40;;;;;;;19.08;53.04;103957.50;5018481;28;20071;-65
2021/12/16 15:47:54;;;;;;;5.30;2.22;;;;;;;19.12;53.41;103957.31;5047417;28;20094;-65
2021/12/16 15:50:25;;;;;;;5.65;2.28;;;;;;;19.12;53.36;103954.66;5047739;28;20044;-65
2021/12/16 15:52:51;;;;;;;5.03;2.33;;;;;;;19.10;53.01;103961.81;5030735;28;20489;-64
2021/12/16 15:55:29;;;;;;;5.38;2.47;;;;;;;19.12;52.94;103965.28;5046439;28;20044;-65
2021/12/16 15:58:03;;;;;;;5.05;2.40;;;;;;;19.13;52.68;103972.34;5030513;28;20033;-64